createdAt,value
2023-04-27T00:05:39.608Z,97069.03
2023-04-27T00:11:00.751Z,97066.66
2023-04-27T00:16:21.633Z,97071.53
2023-04-27T00:21:42.290Z,97065.84
2023-04-27T00:27:03.263Z,97065.63
2023-04-27T00:32:24.288Z,97064.91
2023-04-27T00:37:44.898Z,97058.41
2023-04-27T00:43:05.582Z,97055.34
2023-04-27T00:48:26.621Z,97053.59
2023-04-27T00:53:47.588Z,97056.00
2023-04-27T00:59:09.194Z,97051.94
2023-04-27T01:04:32.422Z,97048.91
2023-04-27T01:09:53.333Z,97052.09
2023-04-27T01:15:14.077Z,97057.88
2023-04-27T01:20:34.735Z,97047.19
2023-04-27T01:25:55.975Z,97055.91
2023-04-27T01:31:16.693Z,97057.78
2023-04-27T01:36:37.539Z,97050.44
2023-04-27T01:41:58.838Z,97052.22
2023-04-27T01:47:19.542Z,97056.97
2023-04-27T01:52:40.308Z,97059.53
2023-04-27T01:58:01.026Z,97065.03
2023-04-27T02:03:22.539Z,97073.00
2023-04-27T02:08:44.455Z,97068.47
2023-04-27T02:14:05.156Z,97070.75
2023-04-27T02:19:25.732Z,97069.16
2023-04-27T02:24:46.617Z,97083.63
2023-04-27T02:30:09.124Z,97078.34
2023-04-27T02:35:32.526Z,97083.28
2023-04-27T02:40:55.134Z,97077.06
2023-04-27T02:46:16.347Z,97086.22
2023-04-27T02:51:37.399Z,97079.69
2023-04-27T02:56:58.948Z,97089.44
2023-04-27T03:02:20.055Z,97088.81
2023-04-27T03:07:41.172Z,97078.22
2023-04-27T03:13:01.802Z,97085.16
2023-04-27T03:18:22.595Z,97081.81
2023-04-27T03:23:43.349Z,97091.50
2023-04-27T03:29:04.092Z,97087.41
2023-04-27T03:34:24.780Z,97089.13
2023-04-27T03:39:45.775Z,97092.53
2023-04-27T03:45:08.138Z,97104.59
2023-04-27T03:50:30.270Z,97104.09
2023-04-27T03:55:51.614Z,97105.03
2023-04-27T04:01:12.363Z,97107.13
2023-04-27T04:06:33.117Z,97111.44
2023-04-27T04:11:53.787Z,97114.44
2023-04-27T04:17:15.048Z,97114.81
2023-04-27T04:22:35.788Z,97117.47
2023-04-27T04:27:56.815Z,97129.41
2023-04-27T04:33:18.704Z,97132.28
2023-04-27T04:38:39.622Z,97132.81
2023-04-27T04:44:00.738Z,97145.31
2023-04-27T04:49:22.467Z,97151.84
2023-04-27T04:54:44.018Z,97154.78
2023-04-27T05:00:11.145Z,97155.91
2023-04-27T05:05:31.810Z,97161.09
2023-04-27T05:10:53.695Z,97165.81
2023-04-27T05:16:14.282Z,97165.63
2023-04-27T05:21:35.003Z,97169.66
2023-04-27T05:26:55.607Z,97162.38
2023-04-27T05:32:16.525Z,97156.34
2023-04-27T05:37:37.192Z,97165.38
2023-04-27T05:42:58.040Z,97165.16
2023-04-27T05:48:19.673Z,97157.19
2023-04-27T05:53:41.300Z,97158.63
2023-04-27T05:59:02.880Z,97157.41
2023-04-27T06:04:23.666Z,97161.59
2023-04-27T06:09:44.803Z,97160.47
2023-04-27T06:15:09.935Z,97155.22
2023-04-27T06:20:31.663Z,97159.44
2023-04-27T06:25:52.370Z,97159.09
2023-04-27T06:31:13.098Z,97154.69
2023-04-27T06:36:33.906Z,97156.91
2023-04-27T06:41:54.881Z,97164.56
2023-04-27T06:47:15.692Z,97165.16
2023-04-27T06:52:36.363Z,97170.75
2023-04-27T06:57:57.297Z,97174.53
2023-04-27T07:03:18.323Z,97173.56
2023-04-27T07:08:39.297Z,97173.34
2023-04-27T07:13:59.939Z,97174.13
2023-04-27T07:19:20.628Z,97170.94
2023-04-27T07:24:41.981Z,97170.66
2023-04-27T07:30:03.166Z,97176.06
2023-04-27T07:35:24.122Z,97177.72
2023-04-27T07:40:45.421Z,97178.69
2023-04-27T07:46:06.576Z,97179.78
2023-04-27T07:51:30.396Z,97176.78
2023-04-27T07:56:51.802Z,97180.34
2023-04-27T08:07:44.095Z,97189.75
2023-04-27T08:13:05.644Z,97184.19
2023-04-27T08:18:27.251Z,97188.69
2023-04-27T08:23:47.909Z,97180.25
2023-04-27T08:29:19.217Z,97181.69
2023-04-27T08:34:47.563Z,97179.31
2023-04-27T08:40:10.014Z,97182.22
2023-04-27T08:45:30.699Z,97181.38
2023-04-27T08:50:52.948Z,97192.56
2023-04-27T08:56:13.551Z,97190.53
2023-04-27T09:01:34.400Z,97185.22
2023-04-27T09:06:55.097Z,97191.84
2023-04-27T09:12:20.447Z,97200.63
2023-04-27T09:17:41.352Z,97201.66
2023-04-27T09:23:02.013Z,97189.09
2023-04-27T09:28:23.428Z,97182.13
2023-04-27T09:33:48.794Z,97173.34
2023-04-27T09:39:10.170Z,97180.50
2023-04-27T09:44:32.020Z,97176.06
2023-04-27T09:49:52.880Z,97175.81
2023-04-27T09:55:21.116Z,97172.84
2023-04-27T10:01:04.906Z,97175.59
2023-04-27T10:06:51.067Z,97179.91
2023-04-27T10:12:19.368Z,97176.31
2023-04-27T10:17:48.589Z,97163.06
2023-04-27T10:23:09.340Z,97159.75
2023-04-27T10:28:38.641Z,97168.69
2023-04-27T10:34:10.008Z,97162.06
2023-04-27T10:39:46.832Z,97147.75
2023-04-27T10:45:09.847Z,97145.34
2023-04-27T10:50:32.065Z,97145.13
2023-04-27T10:55:59.295Z,97146.78
2023-04-27T11:01:27.353Z,97152.50
2023-04-27T11:06:48.112Z,97143.19
2023-04-27T11:12:12.947Z,97143.88
2023-04-27T11:17:34.171Z,97140.41
2023-04-27T11:22:55.285Z,97159.16
2023-04-27T11:28:26.216Z,97148.72
2023-04-27T11:33:51.719Z,97143.91
2023-04-27T11:39:19.661Z,97141.56
2023-04-27T11:44:41.027Z,97141.28
2023-04-27T11:50:07.349Z,97148.47
2023-04-27T11:55:28.764Z,97142.13
2023-04-27T12:00:49.639Z,97140.34
2023-04-27T12:06:31.829Z,97137.19
2023-04-27T12:11:51.571Z,97131.94
2023-04-27T12:17:12.619Z,97131.69
2023-04-27T12:22:33.428Z,97135.09
2023-04-27T12:27:54.566Z,97137.84
2023-04-27T12:33:16.734Z,97143.38
2023-04-27T12:38:37.614Z,97141.97
2023-04-27T12:43:58.448Z,97130.44
2023-04-27T12:49:19.197Z,97131.25
2023-04-27T12:54:40.179Z,97122.88
2023-04-27T13:00:02.197Z,97121.78
2023-04-27T13:05:23.339Z,97121.50
2023-04-27T13:10:44.526Z,97126.56
2023-04-27T13:16:05.571Z,97132.06
2023-04-27T13:21:27.076Z,97128.38
2023-04-27T13:26:48.614Z,97128.09
2023-04-27T13:32:09.433Z,97137.16
2023-04-27T13:37:30.100Z,97124.53
2023-04-27T13:42:51.157Z,97121.63
2023-04-27T13:48:12.809Z,97113.25
2023-04-27T13:53:33.475Z,97114.31
2023-04-27T13:58:54.188Z,97112.00
2023-04-27T14:04:14.975Z,97109.41
2023-04-27T14:09:36.147Z,97114.78
2023-04-27T14:14:58.386Z,97124.38
2023-04-27T14:20:19.097Z,97107.91
2023-04-27T14:25:39.744Z,97109.41
2023-04-27T14:31:00.825Z,97098.09
2023-04-27T14:36:21.583Z,97096.31
2023-04-27T14:41:42.334Z,97100.59
2023-04-27T14:47:03.247Z,97098.69
2023-04-27T14:52:24.244Z,97092.50
2023-04-27T14:57:45.058Z,97096.88
2023-04-27T15:03:06.251Z,97085.03
2023-04-27T15:08:27.597Z,97086.69
2023-04-27T15:13:48.296Z,97089.28
2023-04-27T15:19:09.192Z,97087.91
2023-04-27T15:24:29.935Z,97084.34
2023-04-27T15:29:53.032Z,97086.81
2023-04-27T15:35:13.722Z,97090.78
2023-04-27T15:40:34.984Z,97089.97
2023-04-27T15:45:55.751Z,97087.53
2023-04-27T15:51:16.801Z,97087.97
2023-04-27T15:56:37.549Z,97076.56
2023-04-27T16:01:58.272Z,97082.69
2023-04-27T16:07:18.993Z,97081.34
2023-04-27T16:12:39.773Z,97077.59
2023-04-27T16:18:00.751Z,97084.47
2023-04-27T16:23:21.804Z,97078.47
2023-04-27T16:28:43.189Z,97070.47
2023-04-27T16:34:04.172Z,97075.84
2023-04-27T16:39:25.272Z,97069.53
2023-04-27T16:44:47.081Z,97065.53
2023-04-27T16:50:08.011Z,97073.63
2023-04-27T16:55:29.100Z,97069.38
2023-04-27T17:00:49.685Z,97069.25
2023-04-27T17:06:10.395Z,97068.66
2023-04-27T17:11:31.747Z,97067.31
2023-04-27T17:16:52.516Z,97062.38
2023-04-27T17:22:14.871Z,97068.81
2023-04-27T17:27:35.879Z,97063.44
2023-04-27T17:32:56.611Z,97067.06
2023-04-27T17:38:17.253Z,97063.84
2023-04-27T17:43:38.107Z,97059.75
2023-04-27T17:48:58.853Z,97064.56
2023-04-27T17:54:19.552Z,97066.81
2023-04-27T17:59:40.763Z,97073.81
2023-04-27T18:05:01.537Z,97066.78
2023-04-27T18:10:22.291Z,97071.34
2023-04-27T18:15:43.068Z,97080.13
2023-04-27T18:21:03.861Z,97078.66
2023-04-27T18:26:24.787Z,97093.31
2023-04-27T18:31:46.158Z,97091.53
2023-04-27T18:37:06.885Z,97100.56
2023-04-27T18:42:27.490Z,97111.28
2023-04-27T18:47:48.315Z,97120.84
2023-04-27T18:53:09.042Z,97126.50
2023-04-27T18:58:29.867Z,97132.53
2023-04-27T19:03:51.164Z,97131.97
2023-04-27T19:09:12.235Z,97124.56
2023-04-27T19:14:33.058Z,97129.28
2023-04-27T19:19:53.656Z,97129.06
2023-04-27T19:25:14.433Z,97132.38
2023-04-27T19:30:35.106Z,97128.47
2023-04-27T19:35:56.001Z,97134.91
2023-04-27T19:41:17.592Z,97140.00
2023-04-27T19:46:38.656Z,97142.91
2023-04-27T19:52:03.299Z,97139.22
2023-04-27T19:57:27.261Z,97145.22
2023-04-27T20:02:50.551Z,97157.41
2023-04-27T20:08:11.612Z,97151.63
2023-04-27T20:13:32.440Z,97150.91
2023-04-27T20:18:53.261Z,97154.78
2023-04-27T20:24:14.391Z,97157.44
2023-04-27T20:29:35.555Z,97156.94
2023-04-27T20:34:56.451Z,97153.63
2023-04-27T20:40:18.246Z,97142.63
2023-04-27T20:45:39.083Z,97148.25
2023-04-27T20:51:00.058Z,97139.16
2023-04-27T20:56:20.823Z,97134.78
2023-04-27T21:01:41.552Z,97127.19
2023-04-27T21:07:02.349Z,97121.56
2023-04-27T21:12:23.148Z,97123.19
2023-04-27T21:17:44.016Z,97120.25
2023-04-27T21:23:04.592Z,97116.34
2023-04-27T21:28:25.353Z,97111.72
2023-04-27T21:33:46.045Z,97108.88
2023-04-27T21:39:06.837Z,97114.44
2023-04-27T21:44:27.623Z,97102.38
2023-04-27T21:49:50.188Z,97109.00
2023-04-27T21:55:12.029Z,97115.09
2023-04-27T22:00:33.452Z,97113.69
2023-04-27T22:05:57.576Z,97109.19
2023-04-27T22:11:18.240Z,97102.97
2023-04-27T22:16:38.923Z,97105.91
2023-04-27T22:21:59.721Z,97108.00
2023-04-27T22:27:20.711Z,97105.63
2023-04-27T22:32:42.394Z,97095.25
2023-04-27T22:38:03.278Z,97095.63
2023-04-27T22:43:24.138Z,97092.78
2023-04-27T22:48:45.127Z,97095.59
2023-04-27T22:54:06.256Z,97086.88
2023-04-27T22:59:26.815Z,97089.00
2023-04-27T23:04:48.281Z,97092.94
2023-04-27T23:10:10.400Z,97083.81
2023-04-27T23:15:31.779Z,97080.16
2023-04-27T23:20:56.479Z,97090.91
2023-04-27T23:26:17.422Z,97089.25
2023-04-27T23:31:38.306Z,97089.25
2023-04-27T23:36:59.333Z,97080.75
2023-04-27T23:42:19.964Z,97078.28
2023-04-27T23:47:40.732Z,97072.28
2023-04-27T23:53:01.592Z,97073.13
2023-04-27T23:58:24.819Z,97067.91
